PWSweather.com
Personal Weather Stations
Station Observations
KMAMEDFI2
Medfield, MA 02052

Medfield, MA 02052

Lat: 42.1900822, Lon: -71.3296889

Elevation: 138

Station Type: Rainwise WS MK-III

http://www.medfieldweather.com

High Low Average
Temperature 45.0°F7.2°C 24.7°F-4.1°C 36.7°F2.6°C
Dew Point 31.4°F-0.3°C 10.7°F-11.8°C 20.4°F-6.4°C
Winds 17.3 mph 27.8 kmh Calm Calm 5.0 mph W8.0 kmh W
Wind Gusts 25.3 mph40.7 kmh -- 9.0 mph14.5 kmh
Humidity 83% 27% 55%
Pressure 30.35 in1027.8 mb 29.76 in1007.8 mb -
Precipitation 0.00 in0.0 mm - -
Hour Temp Dew Point Humidity Winds Wind Gusts Pressure Precip Precip Rate Daily Precip Total
12:00 AM 37.5°F3.1°C 33.1°F0.6°C 84% 4.6 mph NW7.4 kmh NW 5.8 mph9.3 kmh 29.75 in1007.5 mb - 0.00 in0.0 mm 0.00 in0.0 mm
12:10 AM 37.8°F3.2°C 32.8°F0.4°C 82% 5.8 mph SW9.3 kmh SW 9.2 mph14.8 kmh 29.75 in1007.5 mb - 0.00 in0.0 mm 0.00 in0.0 mm
12:20 AM 37.8°F3.2°C 32.8°F0.4°C 82% 3.5 mph WSW5.6 kmh WSW 3.5 mph5.6 kmh 29.76 in1007.8 mb - 0.00 in0.0 mm 0.00 in0.0 mm
12:30 AM 37.6°F3.1°C 32.6°F0.3°C 82% 2.3 mph NW3.7 kmh NW 3.5 mph5.6 kmh 29.76 in1007.8 mb - 0.00 in0.0 mm 0.00 in0.0 mm
12:40 AM 37.4°F3.0°C 32.1°F0.1°C 81% 3.5 mph W5.6 kmh W 3.5 mph5.6 kmh 29.76 in1007.8 mb - 0.00 in0.0 mm 0.00 in0.0 mm
12:50 AM 37.1°F2.8°C 31.8°F-0.1°C 81% 2.3 mph W3.7 kmh W 9.2 mph14.8 kmh 29.77 in1008.1 mb - 0.00 in0.0 mm 0.00 in0.0 mm
01:00 AM 36.7°F2.6°C 31.4°F-0.3°C 81% 3.5 mph WSW5.6 kmh WSW 3.5 mph5.6 kmh 29.76 in1007.8 mb - 0.00 in0.0 mm 0.00 in0.0 mm
01:10 AM 36.3°F2.4°C 31.1°F-0.5°C 81% 5.8 mph WSW9.3 kmh WSW 8.1 mph13.0 kmh 29.76 in1007.8 mb - 0.00 in0.0 mm 0.00 in0.0 mm
01:20 AM 36.3°F2.4°C 31.0°F-0.6°C 81% 3.5 mph WNW5.6 kmh WNW 8.1 mph13.0 kmh 29.77 in1008.1 mb - 0.00 in0.0 mm 0.00 in0.0 mm
01:30 AM 36.2°F2.3°C 30.3°F-0.9°C 79% 6.9 mph W11.1 kmh W 8.1 mph13.0 kmh 29.77 in1008.1 mb - 0.00 in0.0 mm 0.00 in0.0 mm
01:40 AM 36.3°F2.4°C 29.8°F-1.2°C 77% 5.8 mph WNW9.3 kmh WNW 8.1 mph13.0 kmh 29.78 in1008.5 mb - 0.00 in0.0 mm 0.00 in0.0 mm
01:50 AM 36.3°F2.4°C 29.8°F-1.2°C 77% 6.9 mph WSW11.1 kmh WSW 11.5 mph18.5 kmh 29.78 in1008.5 mb - 0.00 in0.0 mm 0.00 in0.0 mm
02:00 AM 35.9°F2.2°C 29.4°F-1.4°C 77% 4.6 mph WNW7.4 kmh WNW 5.8 mph9.3 kmh 29.78 in1008.5 mb - 0.00 in0.0 mm 0.00 in0.0 mm
02:10 AM 35.6°F2.0°C 29.4°F-1.4°C 78% 3.5 mph WNW5.6 kmh WNW 6.9 mph11.1 kmh 29.78 in1008.5 mb - 0.00 in0.0 mm 0.00 in0.0 mm
02:20 AM 35.5°F1.9°C 29.6°F-1.3°C 79% 5.8 mph WSW9.3 kmh WSW 8.1 mph13.0 kmh 29.78 in1008.5 mb - 0.00 in0.0 mm 0.00 in0.0 mm
02:30 AM 35.7°F2.1°C 29.2°F-1.6°C 77% 6.9 mph NW11.1 kmh NW 9.2 mph14.8 kmh 29.78 in1008.5 mb - 0.00 in0.0 mm 0.00 in0.0 mm
02:40 AM 35.7°F2.1°C 29.5°F-1.4°C 78% 2.3 mph W3.7 kmh W 5.8 mph9.3 kmh 29.78 in1008.5 mb - 0.00 in0.0 mm 0.00 in0.0 mm
02:50 AM 35.1°F1.7°C 28.9°F-1.7°C 78% 3.5 mph WSW5.6 kmh WSW 6.9 mph11.1 kmh 29.78 in1008.5 mb - 0.00 in0.0 mm 0.00 in0.0 mm
03:00 AM 34.6°F1.4°C 28.8°F-1.8°C 79% 2.3 mph WSW3.7 kmh WSW 5.8 mph9.3 kmh 29.78 in1008.5 mb - 0.00 in0.0 mm 0.00 in0.0 mm
03:10 AM 34.3°F1.3°C 28.8°F-1.8°C 80% 4.6 mph WSW7.4 kmh WSW 6.9 mph11.1 kmh 29.78 in1008.5 mb - 0.00 in0.0 mm 0.00 in0.0 mm
03:20 AM 34.3°F1.3°C 28.8°F-1.8°C 80% 5.8 mph NW9.3 kmh NW 5.8 mph9.3 kmh 29.78 in1008.5 mb - 0.00 in0.0 mm 0.00 in0.0 mm
03:30 AM 34.2°F1.2°C 29.0°F-1.7°C 81% 4.6 mph WSW7.4 kmh WSW 5.8 mph9.3 kmh 29.78 in1008.5 mb - 0.00 in0.0 mm 0.00 in0.0 mm
03:40 AM 33.9°F1.1°C 29.0°F-1.7°C 82% 5.8 mph WSW9.3 kmh WSW 8.1 mph13.0 kmh 29.79 in1008.8 mb - 0.00 in0.0 mm 0.00 in0.0 mm
03:50 AM 33.8°F1.0°C 28.9°F-1.7°C 82% 4.6 mph NW7.4 kmh NW 3.5 mph5.6 kmh 29.79 in1008.8 mb - 0.00 in0.0 mm 0.00 in0.0 mm
04:00 AM 33.5°F0.8°C 28.9°F-1.7°C 83% 2.3 mph WSW3.7 kmh WSW 2.3 mph3.7 kmh 29.80 in1009.1 mb - 0.00 in0.0 mm 0.00 in0.0 mm
04:10 AM 33.5°F0.8°C 28.9°F-1.7°C 83% 5.8 mph W9.3 kmh W 6.9 mph11.1 kmh 29.80 in1009.1 mb - 0.00 in0.0 mm 0.00 in0.0 mm
04:20 AM 33.6°F0.9°C 29.0°F-1.7°C 83% 2.3 mph W3.7 kmh W 5.8 mph9.3 kmh 29.80 in1009.1 mb - 0.00 in0.0 mm 0.00 in0.0 mm
04:30 AM 33.5°F0.8°C 28.6°F-1.9°C 82% 2.3 mph WSW3.7 kmh WSW 2.3 mph3.7 kmh 29.80 in1009.1 mb - 0.00 in0.0 mm 0.00 in0.0 mm
04:40 AM 33.5°F0.8°C 28.9°F-1.7°C 83% 3.5 mph W5.6 kmh W 8.1 mph13.0 kmh 29.81 in1009.5 mb - 0.00 in0.0 mm 0.00 in0.0 mm
04:50 AM 33.5°F0.8°C 28.9°F-1.7°C 83% 3.5 mph WSW5.6 kmh WSW 9.2 mph14.8 kmh 29.81 in1009.5 mb - 0.00 in0.0 mm 0.00 in0.0 mm
05:00 AM 33.4°F0.8°C 28.2°F-2.1°C 81% 6.9 mph WSW11.1 kmh WSW 8.1 mph13.0 kmh 29.82 in1009.8 mb - 0.00 in0.0 mm 0.00 in0.0 mm
05:10 AM 33.5°F0.8°C 28.3°F-2.1°C 81% 3.5 mph WNW5.6 kmh WNW 11.5 mph18.5 kmh 29.82 in1009.8 mb - 0.00 in0.0 mm 0.00 in0.0 mm
05:20 AM 33.7°F0.9°C 28.5°F-1.9°C 81% 2.3 mph W3.7 kmh W 2.3 mph3.7 kmh 29.83 in1010.2 mb - 0.00 in0.0 mm 0.00 in0.0 mm
05:30 AM 33.9°F1.1°C 27.4°F-2.6°C 77% 2.3 mph SW3.7 kmh SW 2.3 mph3.7 kmh 29.84 in1010.5 mb - 0.00 in0.0 mm 0.00 in0.0 mm
05:40 AM 33.8°F1.0°C 27.0°F-2.8°C 76% 3.5 mph WSW5.6 kmh WSW 6.9 mph11.1 kmh 29.85 in1010.8 mb - 0.00 in0.0 mm 0.00 in0.0 mm
05:50 AM 33.7°F0.9°C 26.9°F-2.8°C 76% 6.9 mph W11.1 kmh W 6.9 mph11.1 kmh 29.86 in1011.2 mb - 0.00 in0.0 mm 0.00 in0.0 mm
06:00 AM 33.3°F0.7°C 27.2°F-2.7°C 78% 3.5 mph WNW5.6 kmh WNW 6.9 mph11.1 kmh 29.86 in1011.2 mb - 0.00 in0.0 mm 0.00 in0.0 mm
06:10 AM 33.3°F0.7°C 27.5°F-2.5°C 79% 3.5 mph WNW5.6 kmh WNW 5.8 mph9.3 kmh 29.87 in1011.5 mb - 0.00 in0.0 mm 0.00 in0.0 mm
06:20 AM 32.9°F0.5°C 27.4°F-2.6°C 80% 4.6 mph WSW7.4 kmh WSW 9.2 mph14.8 kmh 29.88 in1011.9 mb - 0.00 in0.0 mm 0.00 in0.0 mm
06:30 AM 33.0°F0.6°C 27.2°F-2.7°C 79% 3.5 mph WSW5.6 kmh WSW 2.3 mph3.7 kmh 29.88 in1011.9 mb - 0.00 in0.0 mm 0.00 in0.0 mm
06:40 AM 32.9°F0.5°C 26.8°F-2.9°C 78% 5.8 mph W9.3 kmh W 11.5 mph18.5 kmh 29.88 in1011.9 mb - 0.00 in0.0 mm 0.00 in0.0 mm
06:50 AM 32.9°F0.5°C 26.8°F-2.9°C 78% 6.9 mph NW11.1 kmh NW 8.1 mph13.0 kmh 29.89 in1012.2 mb - 0.00 in0.0 mm 0.00 in0.0 mm
07:00 AM 32.9°F0.5°C 26.8°F-2.9°C 78% 3.5 mph WSW5.6 kmh WSW 2.3 mph3.7 kmh 29.90 in1012.5 mb - 0.00 in0.0 mm 0.00 in0.0 mm
07:10 AM 32.9°F0.5°C 26.5°F-3.1°C 77% 6.9 mph W11.1 kmh W 8.1 mph13.0 kmh 29.91 in1012.9 mb - 0.00 in0.0 mm 0.00 in0.0 mm
07:20 AM 33.5°F0.8°C 26.7°F-2.9°C 76% 2.3 mph NW3.7 kmh NW 5.8 mph9.3 kmh 29.91 in1012.9 mb - 0.00 in0.0 mm 0.00 in0.0 mm
07:30 AM 33.6°F0.9°C 25.5°F-3.6°C 72% 3.5 mph W5.6 kmh W 9.2 mph14.8 kmh 29.92 in1013.2 mb - 0.00 in0.0 mm 0.00 in0.0 mm
07:40 AM 34.0°F1.1°C 24.9°F-3.9°C 69% 8.1 mph WNW13.0 kmh WNW 9.2 mph14.8 kmh 29.92 in1013.2 mb - 0.00 in0.0 mm 0.00 in0.0 mm
07:50 AM 34.5°F1.4°C 25.0°F-3.9°C 68% 4.6 mph W7.4 kmh W 8.1 mph13.0 kmh 29.92 in1013.2 mb - 0.00 in0.0 mm 0.00 in0.0 mm
08:00 AM 34.9°F1.6°C 24.7°F-4.1°C 66% 4.6 mph W7.4 kmh W 8.1 mph13.0 kmh 29.93 in1013.5 mb - 0.00 in0.0 mm 0.00 in0.0 mm
08:10 AM 35.3°F1.8°C 24.3°F-4.3°C 64% 10.4 mph WSW16.7 kmh WSW 15.0 mph24.1 kmh 29.94 in1013.9 mb - 0.00 in0.0 mm 0.00 in0.0 mm
08:20 AM 35.8°F2.1°C 24.8°F-4.0°C 64% 9.2 mph NW14.8 kmh NW 13.8 mph22.2 kmh 29.94 in1013.9 mb - 0.00 in0.0 mm 0.00 in0.0 mm
08:30 AM 36.3°F2.4°C 25.3°F-3.7°C 64% 6.9 mph WNW11.1 kmh WNW 11.5 mph18.5 kmh 29.95 in1014.2 mb - 0.00 in0.0 mm 0.00 in0.0 mm
08:40 AM 36.7°F2.6°C 25.3°F-3.7°C 63% 11.5 mph W18.5 kmh W 18.4 mph29.6 kmh 29.96 in1014.6 mb - 0.00 in0.0 mm 0.00 in0.0 mm
08:50 AM 37.3°F2.9°C 26.2°F-3.2°C 64% 4.6 mph W7.4 kmh W 5.8 mph9.3 kmh 29.97 in1014.9 mb - 0.00 in0.0 mm 0.00 in0.0 mm
09:00 AM 37.8°F3.2°C 24.3°F-4.3°C 58% 11.5 mph NNW18.5 kmh NNW 19.6 mph31.5 kmh 29.97 in1014.9 mb - 0.00 in0.0 mm 0.00 in0.0 mm
09:10 AM 38.3°F3.5°C 24.8°F-4.0°C 58% 8.1 mph WNW13.0 kmh WNW 15.0 mph24.1 kmh 29.98 in1015.2 mb - 0.00 in0.0 mm 0.00 in0.0 mm
09:20 AM 38.5°F3.6°C 23.7°F-4.6°C 55% 10.4 mph WSW16.7 kmh WSW 23.0 mph37.0 kmh 29.99 in1015.6 mb - 0.00 in0.0 mm 0.00 in0.0 mm
09:30 AM 38.5°F3.6°C 23.3°F-4.8°C 54% 11.5 mph W18.5 kmh W 16.1 mph25.9 kmh 29.99 in1015.6 mb - 0.00 in0.0 mm 0.00 in0.0 mm
09:40 AM 38.6°F3.7°C 23.3°F-4.8°C 54% 6.9 mph NW11.1 kmh NW 10.4 mph16.7 kmh 29.99 in1015.6 mb - 0.00 in0.0 mm 0.00 in0.0 mm
09:50 AM 39.5°F4.2°C 24.6°F-4.1°C 55% 9.2 mph WSW14.8 kmh WSW 16.1 mph25.9 kmh 30.00 in1015.9 mb - 0.00 in0.0 mm 0.00 in0.0 mm
10:00 AM 39.5°F4.2°C 23.3°F-4.8°C 52% 10.4 mph WSW16.7 kmh WSW 11.5 mph18.5 kmh 30.01 in1016.3 mb - 0.00 in0.0 mm 0.00 in0.0 mm
10:10 AM 40.1°F4.5°C 23.4°F-4.8°C 51% 6.9 mph NW11.1 kmh NW 11.5 mph18.5 kmh 30.01 in1016.3 mb - 0.00 in0.0 mm 0.00 in0.0 mm
10:20 AM 40.4°F4.7°C 25.1°F-3.8°C 54% 4.6 mph N7.4 kmh N 11.5 mph18.5 kmh 30.02 in1016.6 mb - 0.00 in0.0 mm 0.00 in0.0 mm
10:30 AM 39.4°F4.1°C 23.7°F-4.6°C 53% 6.9 mph W11.1 kmh W 21.9 mph35.2 kmh 30.02 in1016.6 mb - 0.00 in0.0 mm 0.00 in0.0 mm
10:40 AM 40.9°F4.9°C 24.6°F-4.1°C 52% 8.1 mph WSW13.0 kmh WSW 15.0 mph24.1 kmh 30.03 in1016.9 mb - 0.00 in0.0 mm 0.00 in0.0 mm
10:50 AM 40.8°F4.9°C 23.6°F-4.7°C 50% 12.7 mph W20.4 kmh W 15.0 mph24.1 kmh 30.03 in1016.9 mb - 0.00 in0.0 mm 0.00 in0.0 mm
11:00 AM 40.7°F4.8°C 23.0°F-5.0°C 49% 9.2 mph WNW14.8 kmh WNW 18.4 mph29.6 kmh 30.03 in1016.9 mb - 0.00 in0.0 mm 0.00 in0.0 mm
11:10 AM 41.6°F5.3°C 22.8°F-5.1°C 47% 10.4 mph WSW16.7 kmh WSW 18.4 mph29.6 kmh 30.03 in1016.9 mb - 0.00 in0.0 mm 0.00 in0.0 mm
11:20 AM 41.9°F5.5°C 23.6°F-4.7°C 48% 8.1 mph SW13.0 kmh SW 17.3 mph27.8 kmh 30.03 in1016.9 mb - 0.00 in0.0 mm 0.00 in0.0 mm
11:30 AM 42.1°F5.6°C 23.8°F-4.6°C 48% 11.5 mph W18.5 kmh W 18.4 mph29.6 kmh 30.03 in1016.9 mb - 0.00 in0.0 mm 0.00 in0.0 mm
11:40 AM 41.9°F5.5°C 22.1°F-5.5°C 45% 9.2 mph W14.8 kmh W 15.0 mph24.1 kmh 30.04 in1017.3 mb - 0.00 in0.0 mm 0.00 in0.0 mm
11:50 AM 43.0°F6.1°C 23.0°F-5.0°C 45% 6.9 mph WNW11.1 kmh WNW 9.2 mph14.8 kmh 30.04 in1017.3 mb - 0.00 in0.0 mm 0.00 in0.0 mm
12:00 PM 42.7°F5.9°C 21.7°F-5.7°C 43% 12.7 mph NW20.4 kmh NW 19.6 mph31.5 kmh 30.05 in1017.6 mb - 0.00 in0.0 mm 0.00 in0.0 mm
12:10 PM 42.5°F5.8°C 19.9°F-6.7°C 40% 12.7 mph W20.4 kmh W 18.4 mph29.6 kmh 30.05 in1017.6 mb - 0.00 in0.0 mm 0.00 in0.0 mm
12:20 PM 42.9°F6.1°C 21.3°F-5.9°C 42% 5.8 mph SW9.3 kmh SW 10.4 mph16.7 kmh 30.05 in1017.6 mb - 0.00 in0.0 mm 0.00 in0.0 mm
12:30 PM 42.7°F5.9°C 21.2°F-6.0°C 42% 9.2 mph WSW14.8 kmh WSW 25.3 mph40.7 kmh 30.06 in1017.9 mb - 0.00 in0.0 mm 0.00 in0.0 mm
12:40 PM 43.4°F6.3°C 21.8°F-5.7°C 42% 10.4 mph W16.7 kmh W 23.0 mph37.0 kmh 30.05 in1017.6 mb - 0.00 in0.0 mm 0.00 in0.0 mm
12:50 PM 43.7°F6.5°C 19.1°F-7.2°C 37% 17.3 mph W27.8 kmh W 24.2 mph38.9 kmh 30.05 in1017.6 mb - 0.00 in0.0 mm 0.00 in0.0 mm
01:00 PM 43.5°F6.4°C 18.3°F-7.6°C 36% 12.7 mph W20.4 kmh W 16.1 mph25.9 kmh 30.05 in1017.6 mb - 0.00 in0.0 mm 0.00 in0.0 mm
01:10 PM 43.8°F6.6°C 19.8°F-6.8°C 38% 8.1 mph WNW13.0 kmh WNW 9.2 mph14.8 kmh 30.06 in1017.9 mb - 0.00 in0.0 mm 0.00 in0.0 mm
01:20 PM 44.2°F6.8°C 20.1°F-6.6°C 38% 10.4 mph NW16.7 kmh NW 18.4 mph29.6 kmh 30.06 in1017.9 mb - 0.00 in0.0 mm 0.00 in0.0 mm
01:30 PM 44.3°F6.8°C 19.6°F-6.9°C 37% 10.4 mph W16.7 kmh W 19.6 mph31.5 kmh 30.07 in1018.3 mb - 0.00 in0.0 mm 0.00 in0.0 mm
01:40 PM 43.9°F6.6°C 17.9°F-7.8°C 35% 10.4 mph W16.7 kmh W 16.1 mph25.9 kmh 30.07 in1018.3 mb - 0.00 in0.0 mm 0.00 in0.0 mm
01:50 PM 44.0°F6.7°C 17.4°F-8.1°C 34% 12.7 mph NW20.4 kmh NW 21.9 mph35.2 kmh 30.07 in1018.3 mb - 0.00 in0.0 mm 0.00 in0.0 mm
02:00 PM 44.6°F7.0°C 19.9°F-6.7°C 37% 6.9 mph W11.1 kmh W 15.0 mph24.1 kmh 30.07 in1018.3 mb - 0.00 in0.0 mm 0.00 in0.0 mm
02:10 PM 44.8°F7.1°C 18.1°F-7.7°C 34% 4.6 mph W7.4 kmh W 5.8 mph9.3 kmh 30.08 in1018.6 mb - 0.00 in0.0 mm 0.00 in0.0 mm
02:20 PM 44.3°F6.8°C 17.7°F-7.9°C 34% 8.1 mph W13.0 kmh W 16.1 mph25.9 kmh 30.08 in1018.6 mb - 0.00 in0.0 mm 0.00 in0.0 mm
02:30 PM 44.7°F7.1°C 18.1°F-7.7°C 34% 6.9 mph WSW11.1 kmh WSW 11.5 mph18.5 kmh 30.09 in1019.0 mb - 0.00 in0.0 mm 0.00 in0.0 mm
02:40 PM 44.7°F7.1°C 15.9°F-8.9°C 31% 9.2 mph W14.8 kmh W 21.9 mph35.2 kmh 30.10 in1019.3 mb - 0.00 in0.0 mm 0.00 in0.0 mm
02:50 PM 44.2°F6.8°C 16.2°F-8.8°C 32% 11.5 mph W18.5 kmh W 21.9 mph35.2 kmh 30.10 in1019.3 mb - 0.00 in0.0 mm 0.00 in0.0 mm
03:00 PM 44.6°F7.0°C 16.6°F-8.6°C 32% 8.1 mph WNW13.0 kmh WNW 13.8 mph22.2 kmh 30.10 in1019.3 mb - 0.00 in0.0 mm 0.00 in0.0 mm
03:10 PM 43.7°F6.5°C 14.2°F-9.9°C 30% 12.7 mph SW20.4 kmh SW 23.0 mph37.0 kmh 30.11 in1019.6 mb - 0.00 in0.0 mm 0.00 in0.0 mm
03:20 PM 44.4°F6.9°C 14.0°F-10.0°C 29% 10.4 mph W16.7 kmh W 21.9 mph35.2 kmh 30.12 in1020.0 mb - 0.00 in0.0 mm 0.00 in0.0 mm
03:30 PM 44.7°F7.1°C 14.3°F-9.8°C 29% 9.2 mph WSW14.8 kmh WSW 15.0 mph24.1 kmh 30.12 in1020.0 mb - 0.00 in0.0 mm 0.00 in0.0 mm
03:40 PM 44.8°F7.1°C 14.4°F-9.8°C 29% 4.6 mph N7.4 kmh N 8.1 mph13.0 kmh 30.13 in1020.3 mb - 0.00 in0.0 mm 0.00 in0.0 mm
03:50 PM 44.5°F6.9°C 14.2°F-9.9°C 29% 9.2 mph SW14.8 kmh SW 8.1 mph13.0 kmh 30.13 in1020.3 mb - 0.00 in0.0 mm 0.00 in0.0 mm
04:00 PM 44.4°F6.9°C 14.1°F-9.9°C 29% 6.9 mph WNW11.1 kmh WNW 6.9 mph11.1 kmh 30.13 in1020.3 mb - 0.00 in0.0 mm 0.00 in0.0 mm
04:10 PM 44.7°F7.1°C 14.3°F-9.8°C 29% 6.9 mph WNW11.1 kmh WNW 11.5 mph18.5 kmh 30.14 in1020.7 mb - 0.00 in0.0 mm 0.00 in0.0 mm
04:20 PM 44.6°F7.0°C 14.3°F-9.8°C 29% 5.8 mph W9.3 kmh W 8.1 mph13.0 kmh 30.15 in1021.0 mb - 0.00 in0.0 mm 0.00 in0.0 mm
04:30 PM 44.8°F7.1°C 14.4°F-9.8°C 29% 4.6 mph WSW7.4 kmh WSW 9.2 mph14.8 kmh 30.15 in1021.0 mb - 0.00 in0.0 mm 0.00 in0.0 mm
04:40 PM 45.0°F7.2°C 15.4°F-9.2°C 30% 8.1 mph WSW13.0 kmh WSW 15.0 mph24.1 kmh 30.15 in1021.0 mb - 0.00 in0.0 mm 0.00 in0.0 mm
04:50 PM 44.4°F6.9°C 13.3°F-10.4°C 28% 4.6 mph N7.4 kmh N 5.8 mph9.3 kmh 30.16 in1021.3 mb - 0.00 in0.0 mm 0.00 in0.0 mm
05:00 PM 44.6°F7.0°C 15.0°F-9.4°C 30% 4.6 mph WNW7.4 kmh WNW 8.1 mph13.0 kmh 30.16 in1021.3 mb - 0.00 in0.0 mm 0.00 in0.0 mm
05:10 PM 44.5°F6.9°C 14.2°F-9.9°C 29% 5.8 mph SW9.3 kmh SW 8.1 mph13.0 kmh 30.17 in1021.7 mb - 0.00 in0.0 mm 0.00 in0.0 mm
05:20 PM 44.3°F6.8°C 12.3°F-10.9°C 27% 9.2 mph WSW14.8 kmh WSW 24.2 mph38.9 kmh 30.17 in1021.7 mb - 0.00 in0.0 mm 0.00 in0.0 mm
05:30 PM 43.6°F6.4°C 13.4°F-10.3°C 29% 3.5 mph NW5.6 kmh NW 8.1 mph13.0 kmh 30.17 in1021.7 mb - 0.00 in0.0 mm 0.00 in0.0 mm
05:50 PM 42.9°F6.1°C 11.2°F-11.6°C 27% 4.6 mph WSW7.4 kmh WSW 13.8 mph22.2 kmh 30.18 in1022.0 mb - 0.00 in0.0 mm 0.00 in0.0 mm
06:00 PM 42.4°F5.8°C 11.5°F-11.4°C 28% 4.6 mph SW7.4 kmh SW 15.0 mph24.1 kmh 30.19 in1022.4 mb - 0.00 in0.0 mm 0.00 in0.0 mm
06:10 PM 42.2°F5.7°C 12.2°F-11.0°C 29% 3.5 mph WNW5.6 kmh WNW 9.2 mph14.8 kmh 30.19 in1022.4 mb - 0.00 in0.0 mm 0.00 in0.0 mm
06:20 PM 41.6°F5.3°C 11.7°F-11.3°C 29% 5.8 mph W9.3 kmh W 9.2 mph14.8 kmh 30.20 in1022.7 mb - 0.00 in0.0 mm 0.00 in0.0 mm
06:30 PM 41.0°F5.0°C 11.9°F-11.2°C 30% 3.5 mph W5.6 kmh W 3.5 mph5.6 kmh 30.21 in1023.0 mb - 0.00 in0.0 mm 0.00 in0.0 mm
06:40 PM 40.5°F4.7°C 10.7°F-11.8°C 29% 2.3 mph W3.7 kmh W 2.3 mph3.7 kmh 30.21 in1023.0 mb - 0.00 in0.0 mm 0.00 in0.0 mm
06:50 PM 39.8°F4.3°C 10.8°F-11.8°C 30% Calm Calm 2.3 mph3.7 kmh 30.21 in1023.0 mb - 0.00 in0.0 mm 0.00 in0.0 mm
07:00 PM 39.2°F4.0°C 11.0°F-11.7°C 31% 4.6 mph WSW7.4 kmh WSW 6.9 mph11.1 kmh 30.22 in1023.4 mb - 0.00 in0.0 mm 0.00 in0.0 mm
07:10 PM 38.9°F3.8°C 11.5°F-11.4°C 32% 4.6 mph WSW7.4 kmh WSW 8.1 mph13.0 kmh 30.23 in1023.7 mb - 0.00 in0.0 mm 0.00 in0.0 mm
07:20 PM 38.7°F3.7°C 11.3°F-11.5°C 32% 2.3 mph W3.7 kmh W 2.3 mph3.7 kmh 30.23 in1023.7 mb - 0.00 in0.0 mm 0.00 in0.0 mm
07:30 PM 38.3°F3.5°C 11.7°F-11.3°C 33% 2.3 mph WSW3.7 kmh WSW 2.3 mph3.7 kmh 30.24 in1024.0 mb - 0.00 in0.0 mm 0.00 in0.0 mm
07:40 PM 37.5°F3.1°C 12.3°F-10.9°C 35% 3.5 mph WSW5.6 kmh WSW 3.5 mph5.6 kmh 30.24 in1024.0 mb - 0.00 in0.0 mm 0.00 in0.0 mm
07:50 PM 37.0°F2.8°C 12.5°F-10.8°C 36% 2.3 mph W3.7 kmh W 2.3 mph3.7 kmh 30.25 in1024.4 mb - 0.00 in0.0 mm 0.00 in0.0 mm
08:00 PM 36.5°F2.5°C 12.6°F-10.8°C 37% Calm Calm -- 30.25 in1024.4 mb - 0.00 in0.0 mm 0.00 in0.0 mm
08:10 PM 35.9°F2.2°C 12.1°F-11.1°C 37% 1.2 mph WNW1.9 kmh WNW 2.3 mph3.7 kmh 30.26 in1024.7 mb - 0.00 in0.0 mm 0.00 in0.0 mm
08:20 PM 35.1°F1.7°C 13.1°F-10.5°C 40% Calm Calm 2.3 mph3.7 kmh 30.27 in1025.1 mb - 0.00 in0.0 mm 0.00 in0.0 mm
08:30 PM 34.1°F1.2°C 13.3°F-10.4°C 42% Calm Calm -- 30.27 in1025.1 mb - 0.00 in0.0 mm 0.00 in0.0 mm
08:40 PM 32.6°F0.3°C 13.5°F-10.3°C 45% Calm Calm -- 30.28 in1025.4 mb - 0.00 in0.0 mm 0.00 in0.0 mm
08:50 PM 30.9°F-0.6°C 13.0°F-10.6°C 47% Calm Calm -- 30.28 in1025.4 mb - 0.00 in0.0 mm 0.00 in0.0 mm
09:00 PM 29.5°F-1.4°C 12.2°F-11.0°C 48% Calm Calm -- 30.28 in1025.4 mb - 0.00 in0.0 mm 0.00 in0.0 mm
09:10 PM 28.6°F-1.9°C 11.3°F-11.5°C 48% Calm Calm -- 30.29 in1025.7 mb - 0.00 in0.0 mm 0.00 in0.0 mm
09:20 PM 28.9°F-1.7°C 12.6°F-10.8°C 50% Calm Calm -- 30.29 in1025.7 mb - 0.00 in0.0 mm 0.00 in0.0 mm
09:30 PM 29.5°F-1.4°C 12.7°F-10.7°C 49% 2.3 mph WSW3.7 kmh WSW 2.3 mph3.7 kmh 30.29 in1025.7 mb - 0.00 in0.0 mm 0.00 in0.0 mm
09:40 PM 29.2°F-1.6°C 14.2°F-9.9°C 53% Calm Calm -- 30.29 in1025.7 mb - 0.00 in0.0 mm 0.00 in0.0 mm
09:50 PM 28.5°F-1.9°C 13.9°F-10.1°C 54% Calm Calm -- 30.30 in1026.1 mb - 0.00 in0.0 mm 0.00 in0.0 mm
10:00 PM 27.8°F-2.3°C 13.7°F-10.2°C 55% Calm Calm -- 30.30 in1026.1 mb - 0.00 in0.0 mm 0.00 in0.0 mm
10:10 PM 27.0°F-2.8°C 13.4°F-10.3°C 56% 2.3 mph WSW3.7 kmh WSW 2.3 mph3.7 kmh 30.30 in1026.1 mb - 0.00 in0.0 mm 0.00 in0.0 mm
10:20 PM 27.3°F-2.6°C 13.7°F-10.2°C 56% 1.2 mph WSW1.9 kmh WSW 2.3 mph3.7 kmh 30.31 in1026.4 mb - 0.00 in0.0 mm 0.00 in0.0 mm
10:30 PM 26.8°F-2.9°C 14.0°F-10.0°C 58% Calm Calm -- 30.31 in1026.4 mb - 0.00 in0.0 mm 0.00 in0.0 mm
10:40 PM 25.9°F-3.4°C 15.0°F-9.4°C 63% Calm Calm -- 30.32 in1026.8 mb - 0.00 in0.0 mm 0.00 in0.0 mm
10:50 PM 25.7°F-3.5°C 15.2°F-9.3°C 64% 1.2 mph WSW1.9 kmh WSW 2.3 mph3.7 kmh 30.33 in1027.1 mb - 0.00 in0.0 mm 0.00 in0.0 mm
11:00 PM 26.6°F-3.0°C 15.0°F-9.4°C 61% Calm Calm 1.2 mph1.9 kmh 30.32 in1026.8 mb - 0.00 in0.0 mm 0.00 in0.0 mm
11:10 PM 27.5°F-2.5°C 15.0°F-9.4°C 59% Calm Calm -- 30.32 in1026.8 mb - 0.00 in0.0 mm 0.00 in0.0 mm
11:20 PM 27.4°F-2.6°C 16.4°F-8.7°C 63% Calm Calm -- 30.33 in1027.1 mb - 0.00 in0.0 mm 0.00 in0.0 mm
11:30 PM 26.9°F-2.8°C 14.9°F-9.5°C 60% Calm Calm -- 30.33 in1027.1 mb - 0.00 in0.0 mm 0.00 in0.0 mm
11:40 PM 27.0°F-2.8°C 15.3°F-9.3°C 61% Calm Calm -- 30.33 in1027.1 mb - 0.00 in0.0 mm 0.00 in0.0 mm
11:50 PM 26.2°F-3.2°C 15.7°F-9.1°C 64% Calm Calm -- 30.33 in1027.1 mb - 0.00 in0.0 mm 0.00 in0.0 mm